sensor_id;sensor_type;location;lat;lon;timestamp;pressure;altitude;pressure_sealevel;temperature;humidity
59588;BME280;45412;54.472;18.464;2023-11-19T00:01:23;100365.60;;;0.04;100.00
59588;BME280;45412;54.472;18.464;2023-11-19T00:04:11;100364.67;;;-0.00;100.00
59588;BME280;45412;54.472;18.464;2023-11-19T00:06:59;100360.05;;;-0.04;100.00
59588;BME280;45412;54.472;18.464;2023-11-19T00:09:51;100355.39;;;-0.05;100.00
59588;BME280;45412;54.472;18.464;2023-11-19T00:12:44;100357.61;;;-0.09;100.00
59588;BME280;45412;54.472;18.464;2023-11-19T00:15:32;100359.46;;;-0.13;100.00
59588;BME280;45412;54.472;18.464;2023-11-19T00:18:20;100350.72;;;-0.19;100.00
59588;BME280;45412;54.472;18.464;2023-11-19T00:21:09;100346.66;;;-0.23;100.00
59588;BME280;45412;54.472;18.464;2023-11-19T00:23:58;100343.89;;;-0.24;100.00
59588;BME280;45412;54.472;18.464;2023-11-19T00:26:46;100343.14;;;-0.22;100.00
59588;BME280;45412;54.472;18.464;2023-11-19T00:29:33;100340.73;;;-0.23;100.00
59588;BME280;45412;54.472;18.464;2023-11-19T00:32:23;100343.99;;;-0.27;100.00
59588;BME280;45412;54.472;18.464;2023-11-19T00:35:11;100339.55;;;-0.30;100.00
59588;BME280;45412;54.472;18.464;2023-11-19T00:38:01;100329.27;;;-0.30;100.00
59588;BME280;45412;54.472;18.464;2023-11-19T00:40:50;100331.21;;;-0.31;100.00
59588;BME280;45412;54.472;18.464;2023-11-19T00:43:38;100338.60;;;-0.34;100.00
59588;BME280;45412;54.472;18.464;2023-11-19T00:46:26;100338.36;;;-0.32;100.00
59588;BME280;45412;54.472;18.464;2023-11-19T00:49:14;100335.84;;;-0.29;100.00
59588;BME280;45412;54.472;18.464;2023-11-19T00:52:03;100333.69;;;-0.27;100.00
59588;BME280;45412;54.472;18.464;2023-11-19T00:54:51;100324.96;;;-0.26;100.00
59588;BME280;45412;54.472;18.464;2023-11-19T00:57:39;100320.19;;;-0.24;100.00
59588;BME280;45412;54.472;18.464;2023-11-19T01:00:28;100320.73;;;-0.25;100.00
59588;BME280;45412;54.472;18.464;2023-11-19T01:03:16;100313.92;;;-0.25;100.00
59588;BME280;45412;54.472;18.464;2023-11-19T01:06:05;100314.56;;;-0.23;100.00
59588;BME280;45412;54.472;18.464;2023-11-19T01:08:52;100313.97;;;-0.20;100.00
59588;BME280;45412;54.472;18.464;2023-11-19T01:11:40;100314.54;;;-0.16;100.00
59588;BME280;45412;54.472;18.464;2023-11-19T01:14:29;100305.33;;;-0.11;100.00
59588;BME280;45412;54.472;18.464;2023-11-19T01:17:17;100288.98;;;-0.06;100.00
59588;BME280;45412;54.472;18.464;2023-11-19T01:20:05;100282.61;;;-0.04;100.00
59588;BME280;45412;54.472;18.464;2023-11-19T01:22:59;100275.05;;;-0.02;100.00
59588;BME280;45412;54.472;18.464;2023-11-19T01:25:47;100276.77;;;-0.01;100.00
59588;BME280;45412;54.472;18.464;2023-11-19T01:28:36;100272.39;;;0.00;100.00
59588;BME280;45412;54.472;18.464;2023-11-19T01:31:39;100271.47;;;0.01;100.00
59588;BME280;45412;54.472;18.464;2023-11-19T01:34:26;100273.73;;;0.02;100.00
59588;BME280;45412;54.472;18.464;2023-11-19T01:37:14;100269.19;;;0.02;100.00
59588;BME280;45412;54.472;18.464;2023-11-19T01:40:03;100269.39;;;0.01;100.00
59588;BME280;45412;54.472;18.464;2023-11-19T01:42:55;100269.99;;;-0.02;100.00
59588;BME280;45412;54.472;18.464;2023-11-19T01:45:43;100262.00;;;-0.03;100.00
59588;BME280;45412;54.472;18.464;2023-11-19T01:48:34;100253.33;;;-0.04;100.00
59588;BME280;45412;54.472;18.464;2023-11-19T01:51:23;100246.91;;;-0.06;100.00
59588;BME280;45412;54.472;18.464;2023-11-19T01:54:12;100245.50;;;-0.06;100.00
59588;BME280;45412;54.472;18.464;2023-11-19T01:57:00;100241.26;;;-0.09;100.00
59588;BME280;45412;54.472;18.464;2023-11-19T01:59:50;100235.61;;;-0.07;100.00
59588;BME280;45412;54.472;18.464;2023-11-19T02:02:41;100226.39;;;-0.08;100.00
59588;BME280;45412;54.472;18.464;2023-11-19T02:05:32;100227.86;;;-0.05;100.00
59588;BME280;45412;54.472;18.464;2023-11-19T02:08:20;100225.27;;;-0.06;100.00
59588;BME280;45412;54.472;18.464;2023-11-19T02:11:08;100214.34;;;-0.08;100.00
59588;BME280;45412;54.472;18.464;2023-11-19T02:13:57;100206.03;;;-0.09;100.00
59588;BME280;45412;54.472;18.464;2023-11-19T02:16:44;100193.86;;;-0.11;100.00
59588;BME280;45412;54.472;18.464;2023-11-19T02:19:32;100184.05;;;-0.15;100.00
59588;BME280;45412;54.472;18.464;2023-11-19T02:22:19;100182.42;;;-0.19;100.00
59588;BME280;45412;54.472;18.464;2023-11-19T02:25:15;100171.05;;;-0.23;100.00
59588;BME280;45412;54.472;18.464;2023-11-19T02:28:04;100168.56;;;-0.27;100.00
59588;BME280;45412;54.472;18.464;2023-11-19T02:30:53;100161.35;;;-0.31;100.00
59588;BME280;45412;54.472;18.464;2023-11-19T02:33:41;100153.70;;;-0.31;100.00
59588;BME280;45412;54.472;18.464;2023-11-19T02:36:29;100152.98;;;-0.37;100.00
59588;BME280;45412;54.472;18.464;2023-11-19T02:39:16;100154.65;;;-0.40;100.00
59588;BME280;45412;54.472;18.464;2023-11-19T02:42:09;100152.41;;;-0.40;100.00
59588;BME280;45412;54.472;18.464;2023-11-19T02:44:57;100143.54;;;-0.41;100.00
59588;BME280;45412;54.472;18.464;2023-11-19T02:47:45;100141.40;;;-0.40;100.00
59588;BME280;45412;54.472;18.464;2023-11-19T02:50:33;100137.43;;;-0.41;100.00
59588;BME280;45412;54.472;18.464;2023-11-19T02:53:20;100130.00;;;-0.43;100.00
59588;BME280;45412;54.472;18.464;2023-11-19T02:56:10;100127.52;;;-0.42;100.00
59588;BME280;45412;54.472;18.464;2023-11-19T02:59:13;100124.67;;;-0.40;100.00
59588;BME280;45412;54.472;18.464;2023-11-19T03:02:15;100118.27;;;-0.42;100.00
59588;BME280;45412;54.472;18.464;2023-11-19T03:05:05;100117.06;;;-0.42;100.00
59588;BME280;45412;54.472;18.464;2023-11-19T03:07:52;100117.10;;;-0.43;100.00
59588;BME280;45412;54.472;18.464;2023-11-19T03:10:40;100119.05;;;-0.44;100.00
59588;BME280;45412;54.472;18.464;2023-11-19T03:13:28;100120.77;;;-0.44;100.00
59588;BME280;45412;54.472;18.464;2023-11-19T03:16:15;100115.35;;;-0.43;100.00
59588;BME280;45412;54.472;18.464;2023-11-19T03:19:04;100112.21;;;-0.43;100.00
59588;BME280;45412;54.472;18.464;2023-11-19T03:21:54;100106.21;;;-0.46;100.00
59588;BME280;45412;54.472;18.464;2023-11-19T03:24:42;100094.64;;;-0.49;100.00
59588;BME280;45412;54.472;18.464;2023-11-19T03:27:30;100092.36;;;-0.55;100.00
59588;BME280;45412;54.472;18.464;2023-11-19T03:30:17;100090.70;;;-0.57;100.00
59588;BME280;45412;54.472;18.464;2023-11-19T03:33:05;100084.71;;;-0.61;100.00
59588;BME280;45412;54.472;18.464;2023-11-19T03:35:56;100078.71;;;-0.64;100.00
59588;BME280;45412;54.472;18.464;2023-11-19T03:38:43;100073.91;;;-0.67;100.00
59588;BME280;45412;54.472;18.464;2023-11-19T03:41:31;100069.31;;;-0.70;100.00
59588;BME280;45412;54.472;18.464;2023-11-19T03:44:22;100062.19;;;-0.76;100.00
59588;BME280;45412;54.472;18.464;2023-11-19T03:47:10;100048.98;;;-0.83;100.00
59588;BME280;45412;54.472;18.464;2023-11-19T03:49:58;100039.05;;;-0.89;100.00
59588;BME280;45412;54.472;18.464;2023-11-19T03:52:47;100029.23;;;-0.92;100.00
59588;BME280;45412;54.472;18.464;2023-11-19T03:55:36;100026.04;;;-0.96;100.00
59588;BME280;45412;54.472;18.464;2023-11-19T03:58:24;100023.48;;;-0.98;100.00
59588;BME280;45412;54.472;18.464;2023-11-19T04:01:12;100022.94;;;-1.03;100.00
59588;BME280;45412;54.472;18.464;2023-11-19T04:04:03;100020.16;;;-1.03;100.00
59588;BME280;45412;54.472;18.464;2023-11-19T04:06:51;100023.73;;;-1.00;100.00
59588;BME280;45412;54.472;18.464;2023-11-19T04:09:39;100014.14;;;-1.00;100.00
59588;BME280;45412;54.472;18.464;2023-11-19T04:12:27;100009.43;;;-1.00;100.00
59588;BME280;45412;54.472;18.464;2023-11-19T04:15:15;100000.15;;;-0.99;100.00
59588;BME280;45412;54.472;18.464;2023-11-19T04:18:03;99992.60;;;-1.01;100.00
59588;BME280;45412;54.472;18.464;2023-11-19T04:20:51;99999.55;;;-1.02;100.00
59588;BME280;45412;54.472;18.464;2023-11-19T04:23:38;99991.92;;;-1.03;100.00
59588;BME280;45412;54.472;18.464;2023-11-19T04:26:27;99976.69;;;-1.05;100.00
59588;BME280;45412;54.472;18.464;2023-11-19T04:29:17;99969.70;;;-1.05;100.00
59588;BME280;45412;54.472;18.464;2023-11-19T04:32:05;99959.57;;;-1.04;100.00
59588;BME280;45412;54.472;18.464;2023-11-19T04:34:53;99954.92;;;-1.06;100.00
59588;BME280;45412;54.472;18.464;2023-11-19T04:37:42;99951.28;;;-1.07;100.00
59588;BME280;45412;54.472;18.464;2023-11-19T04:40:29;99956.08;;;-1.09;100.00
59588;BME280;45412;54.472;18.464;2023-11-19T04:43:18;99942.30;;;-1.09;100.00
59588;BME280;45412;54.472;18.464;2023-11-19T04:46:09;99937.45;;;-1.10;100.00
59588;BME280;45412;54.472;18.464;2023-11-19T04:48:57;99929.98;;;-1.10;100.00
59588;BME280;45412;54.472;18.464;2023-11-19T04:51:46;99926.15;;;-1.10;100.00
59588;BME280;45412;54.472;18.464;2023-11-19T04:54:41;99923.59;;;-1.12;100.00
59588;BME280;45412;54.472;18.464;2023-11-19T04:57:30;99915.95;;;-1.12;100.00
59588;BME280;45412;54.472;18.464;2023-11-19T05:00:20;99907.66;;;-1.14;100.00
59588;BME280;45412;54.472;18.464;2023-11-19T05:03:09;99905.97;;;-1.16;100.00
59588;BME280;45412;54.472;18.464;2023-11-19T05:05:58;99903.88;;;-1.16;100.00
59588;BME280;45412;54.472;18.464;2023-11-19T05:08:46;99906.63;;;-1.15;100.00
59588;BME280;45412;54.472;18.464;2023-11-19T05:11:34;99911.17;;;-1.15;100.00
59588;BME280;45412;54.472;18.464;2023-11-19T05:14:22;99915.70;;;-1.15;100.00
59588;BME280;45412;54.472;18.464;2023-11-19T05:17:12;99912.27;;;-1.17;100.00
59588;BME280;45412;54.472;18.464;2023-11-19T05:20:00;99910.09;;;-1.20;100.00
59588;BME280;45412;54.472;18.464;2023-11-19T05:22:47;99894.58;;;-1.25;100.00
59588;BME280;45412;54.472;18.464;2023-11-19T05:25:36;99887.92;;;-1.24;100.00
59588;BME280;45412;54.472;18.464;2023-11-19T05:28:24;99881.64;;;-1.29;100.00
59588;BME280;45412;54.472;18.464;2023-11-19T05:31:14;99886.34;;;-1.29;100.00
59588;BME280;45412;54.472;18.464;2023-11-19T05:34:02;99877.39;;;-1.31;100.00
59588;BME280;45412;54.472;18.464;2023-11-19T05:36:50;99872.17;;;-1.32;100.00
59588;BME280;45412;54.472;18.464;2023-11-19T05:39:38;99865.26;;;-1.33;100.00
59588;BME280;45412;54.472;18.464;2023-11-19T05:42:25;99863.52;;;-1.33;100.00
59588;BME280;45412;54.472;18.464;2023-11-19T05:45:15;99860.61;;;-1.35;100.00
59588;BME280;45412;54.472;18.464;2023-11-19T05:48:02;99860.52;;;-1.38;100.00
59588;BME280;45412;54.472;18.464;2023-11-19T05:50:52;99857.21;;;-1.38;100.00
59588;BME280;45412;54.472;18.464;2023-11-19T05:53:41;99851.49;;;-1.39;100.00
59588;BME280;45412;54.472;18.464;2023-11-19T05:56:29;99854.33;;;-1.40;100.00
59588;BME280;45412;54.472;18.464;2023-11-19T05:59:20;99846.91;;;-1.42;100.00
59588;BME280;45412;54.472;18.464;2023-11-19T06:02:10;99851.89;;;-1.40;100.00
59588;BME280;45412;54.472;18.464;2023-11-19T06:04:58;99846.69;;;-1.41;100.00
59588;BME280;45412;54.472;18.464;2023-11-19T06:07:46;99841.72;;;-1.43;100.00
59588;BME280;45412;54.472;18.464;2023-11-19T06:10:34;99827.69;;;-1.45;100.00
59588;BME280;45412;54.472;18.464;2023-11-19T06:13:22;99826.16;;;-1.47;100.00
59588;BME280;45412;54.472;18.464;2023-11-19T06:16:12;99821.84;;;-1.48;100.00
59588;BME280;45412;54.472;18.464;2023-11-19T06:19:00;99825.04;;;-1.49;100.00
59588;BME280;45412;54.472;18.464;2023-11-19T06:21:48;99823.35;;;-1.51;100.00
59588;BME280;45412;54.472;18.464;2023-11-19T06:24:37;99832.75;;;-1.51;100.00
59588;BME280;45412;54.472;18.464;2023-11-19T06:27:31;99829.36;;;-1.54;100.00
59588;BME280;45412;54.472;18.464;2023-11-19T06:30:19;99828.73;;;-1.56;100.00
59588;BME280;45412;54.472;18.464;2023-11-19T06:33:08;99825.45;;;-1.57;100.00
59588;BME280;45412;54.472;18.464;2023-11-19T06:35:56;99821.90;;;-1.55;100.00
59588;BME280;45412;54.472;18.464;2023-11-19T06:38:43;99813.39;;;-1.55;100.00
59588;BME280;45412;54.472;18.464;2023-11-19T06:41:31;99806.97;;;-1.56;100.00
59588;BME280;45412;54.472;18.464;2023-11-19T06:44:19;99802.63;;;-1.57;100.00
59588;BME280;45412;54.472;18.464;2023-11-19T06:47:06;99799.69;;;-1.57;100.00
59588;BME280;45412;54.472;18.464;2023-11-19T06:49:55;99796.54;;;-1.56;100.00
59588;BME280;45412;54.472;18.464;2023-11-19T06:52:43;99802.69;;;-1.53;100.00
59588;BME280;45412;54.472;18.464;2023-11-19T06:55:31;99795.25;;;-1.49;100.00
59588;BME280;45412;54.472;18.464;2023-11-19T06:58:19;99795.90;;;-1.47;100.00
59588;BME280;45412;54.472;18.464;2023-11-19T07:01:07;99789.05;;;-1.45;100.00
59588;BME280;45412;54.472;18.464;2023-11-19T07:03:55;99787.25;;;-1.43;100.00
59588;BME280;45412;54.472;18.464;2023-11-19T07:06:46;99779.44;;;-1.39;100.00
59588;BME280;45412;54.472;18.464;2023-11-19T07:09:33;99779.52;;;-1.35;100.00
59588;BME280;45412;54.472;18.464;2023-11-19T07:12:21;99778.83;;;-1.30;100.00
59588;BME280;45412;54.472;18.464;2023-11-19T07:15:09;99768.77;;;-1.26;99.91
59588;BME280;45412;54.472;18.464;2023-11-19T07:17:58;99771.34;;;-1.20;99.95
59588;BME280;45412;54.472;18.464;2023-11-19T07:20:49;99770.39;;;-1.17;99.00
59588;BME280;45412;54.472;18.464;2023-11-19T07:23:37;99759.83;;;-1.14;98.79
59588;BME280;45412;54.472;18.464;2023-11-19T07:26:25;99749.62;;;-1.11;98.57
59588;BME280;45412;54.472;18.464;2023-11-19T07:29:14;99749.62;;;-1.07;98.33
59588;BME280;45412;54.472;18.464;2023-11-19T07:32:08;99743.12;;;-1.05;97.85
59588;BME280;45412;54.472;18.464;2023-11-19T07:34:59;99740.36;;;-1.00;97.46
59588;BME280;45412;54.472;18.464;2023-11-19T07:37:47;99732.80;;;-0.94;97.52
59588;BME280;45412;54.472;18.464;2023-11-19T07:40:36;99725.48;;;-0.88;97.06
59588;BME280;45412;54.472;18.464;2023-11-19T07:43:23;99719.73;;;-0.83;97.04
59588;BME280;45412;54.472;18.464;2023-11-19T07:46:12;99716.92;;;-0.78;96.99
59588;BME280;45412;54.472;18.464;2023-11-19T07:49:00;99702.91;;;-0.76;96.50
59588;BME280;45412;54.472;18.464;2023-11-19T07:51:50;99700.56;;;-0.64;96.83
59588;BME280;45412;54.472;18.464;2023-11-19T07:54:38;99697.72;;;-0.53;96.64
59588;BME280;45412;54.472;18.464;2023-11-19T07:57:25;99706.69;;;-0.46;95.88
59588;BME280;45412;54.472;18.464;2023-11-19T08:00:15;99704.48;;;-0.39;95.92
59588;BME280;45412;54.472;18.464;2023-11-19T08:03:04;99698.92;;;-0.35;95.18
59588;BME280;45412;54.472;18.464;2023-11-19T08:05:56;99695.85;;;-0.27;95.21
59588;BME280;45412;54.472;18.464;2023-11-19T08:08:45;99693.70;;;-0.17;94.86
59588;BME280;45412;54.472;18.464;2023-11-19T08:11:33;99689.78;;;-0.10;94.16
59588;BME280;45412;54.472;18.464;2023-11-19T08:14:21;99686.45;;;0.12;94.07
59588;BME280;45412;54.472;18.464;2023-11-19T08:17:09;99672.60;;;0.39;92.62
59588;BME280;45412;54.472;18.464;2023-11-19T08:19:57;99675.76;;;0.88;91.36
59588;BME280;45412;54.472;18.464;2023-11-19T08:22:45;99671.86;;;0.97;89.05
59588;BME280;45412;54.472;18.464;2023-11-19T08:25:33;99670.40;;;0.79;87.98
59588;BME280;45412;54.472;18.464;2023-11-19T08:28:24;99664.63;;;0.54;88.97
59588;BME280;45412;54.472;18.464;2023-11-19T08:31:12;99659.27;;;0.44;90.18
59588;BME280;45412;54.472;18.464;2023-11-19T08:34:02;99653.30;;;0.29;90.40
59588;BME280;45412;54.472;18.464;2023-11-19T08:36:50;99646.37;;;0.15;91.14
59588;BME280;45412;54.472;18.464;2023-11-19T08:39:40;99645.01;;;0.01;91.90
59588;BME280;45412;54.472;18.464;2023-11-19T08:42:29;99639.27;;;-0.07;92.39
59588;BME280;45412;54.472;18.464;2023-11-19T08:45:17;99635.40;;;-0.15;92.50
59588;BME280;45412;54.472;18.464;2023-11-19T08:48:05;99633.35;;;-0.21;93.16
59588;BME280;45412;54.472;18.464;2023-11-19T08:50:53;99626.76;;;-0.26;93.42
59588;BME280;45412;54.472;18.464;2023-11-19T08:53:41;99624.56;;;-0.24;93.71
59588;BME280;45412;54.472;18.464;2023-11-19T08:56:29;99619.81;;;-0.18;93.72
59588;BME280;45412;54.472;18.464;2023-11-19T08:59:20;99614.91;;;-0.05;93.45
59588;BME280;45412;54.472;18.464;2023-11-19T09:02:08;99612.14;;;0.03;92.69
59588;BME280;45412;54.472;18.464;2023-11-19T09:04:56;99608.50;;;0.19;92.47
59588;BME280;45412;54.472;18.464;2023-11-19T09:07:44;99609.38;;;0.56;90.85
59588;BME280;45412;54.472;18.464;2023-11-19T09:10:32;99601.34;;;1.37;88.37
59588;BME280;45412;54.472;18.464;2023-11-19T09:13:20;99596.98;;;2.17;84.17
59588;BME280;45412;54.472;18.464;2023-11-19T09:16:08;99588.80;;;2.67;79.37
59588;BME280;45412;54.472;18.464;2023-11-19T09:18:56;99583.56;;;2.87;77.66
59588;BME280;45412;54.472;18.464;2023-11-19T09:21:45;99579.77;;;2.85;76.56
59588;BME280;45412;54.472;18.464;2023-11-19T09:24:33;99568.15;;;2.73;75.84
59588;BME280;45412;54.472;18.464;2023-11-19T09:27:20;99570.20;;;2.54;75.78
59588;BME280;45412;54.472;18.464;2023-11-19T09:30:09;99565.38;;;2.46;77.16
59588;BME280;45412;54.472;18.464;2023-11-19T09:32:58;99561.71;;;2.22;76.34
59588;BME280;45412;54.472;18.464;2023-11-19T09:35:46;99561.95;;;1.93;75.82
59588;BME280;45412;54.472;18.464;2023-11-19T09:38:34;99557.11;;;1.70;77.46
59588;BME280;45412;54.472;18.464;2023-11-19T09:41:26;99552.58;;;1.52;78.69
59588;BME280;45412;54.472;18.464;2023-11-19T09:44:15;99548.23;;;1.37;80.21
59588;BME280;45412;54.472;18.464;2023-11-19T09:47:06;99545.30;;;1.32;81.11
59588;BME280;45412;54.472;18.464;2023-11-19T09:49:55;99543.40;;;1.21;82.23
59588;BME280;45412;54.472;18.464;2023-11-19T09:52:47;99543.48;;;1.15;83.42
59588;BME280;45412;54.472;18.464;2023-11-19T09:55:35;99540.15;;;1.04;84.08
59588;BME280;45412;54.472;18.464;2023-11-19T09:58:23;99540.06;;;0.83;85.15
59588;BME280;45412;54.472;18.464;2023-11-19T10:01:11;99531.78;;;0.77;86.16
59588;BME280;45412;54.472;18.464;2023-11-19T10:04:03;99526.40;;;0.73;86.81
59588;BME280;45412;54.472;18.464;2023-11-19T10:06:51;99520.00;;;0.72;87.24
59588;BME280;45412;54.472;18.464;2023-11-19T10:09:40;99511.09;;;0.56;87.68
59588;BME280;45412;54.472;18.464;2023-11-19T10:12:28;99508.73;;;0.46;88.27
59588;BME280;45412;54.472;18.464;2023-11-19T10:15:24;99506.02;;;0.37;89.09
59588;BME280;45412;54.472;18.464;2023-11-19T10:18:14;99497.29;;;0.33;89.89
59588;BME280;45412;54.472;18.464;2023-11-19T10:21:02;99488.82;;;0.31;90.46
59588;BME280;45412;54.472;18.464;2023-11-19T10:23:56;99480.52;;;0.22;90.79
59588;BME280;45412;54.472;18.464;2023-11-19T10:26:46;99477.70;;;0.10;91.46
59588;BME280;45412;54.472;18.464;2023-11-19T10:29:37;99472.89;;;0.04;92.00
59588;BME280;45412;54.472;18.464;2023-11-19T10:32:25;99465.86;;;0.02;92.06
59588;BME280;45412;54.472;18.464;2023-11-19T10:35:14;99456.79;;;0.02;92.60
59588;BME280;45412;54.472;18.464;2023-11-19T10:38:14;99456.29;;;0.01;93.17
59588;BME280;45412;54.472;18.464;2023-11-19T10:41:06;99441.25;;;0.02;93.34
59588;BME280;45412;54.472;18.464;2023-11-19T10:43:54;99444.71;;;0.14;93.70
59588;BME280;45412;54.472;18.464;2023-11-19T10:46:42;99440.65;;;0.15;92.95
59588;BME280;45412;54.472;18.464;2023-11-19T10:49:31;99438.05;;;0.15;92.89
59588;BME280;45412;54.472;18.464;2023-11-19T10:52:19;99433.22;;;0.10;92.52
59588;BME280;45412;54.472;18.464;2023-11-19T10:55:11;99430.26;;;0.10;92.78
59588;BME280;45412;54.472;18.464;2023-11-19T10:58:07;99426.52;;;0.12;93.18
59588;BME280;45412;54.472;18.464;2023-11-19T11:00:57;99417.36;;;0.06;92.66
59588;BME280;45412;54.472;18.464;2023-11-19T11:03:47;99414.45;;;0.00;92.49
59588;BME280;45412;54.472;18.464;2023-11-19T11:06:36;99411.96;;;0.02;92.90
59588;BME280;45412;54.472;18.464;2023-11-19T11:09:27;99413.66;;;-0.02;92.47
59588;BME280;45412;54.472;18.464;2023-11-19T11:12:17;99403.74;;;-0.02;92.61
59588;BME280;45412;54.472;18.464;2023-11-19T11:15:06;99397.08;;;-0.05;92.63
59588;BME280;45412;54.472;18.464;2023-11-19T11:17:59;99392.84;;;0.00;93.35
59588;BME280;45412;54.472;18.464;2023-11-19T11:21:17;99384.20;;;0.06;93.09
59588;BME280;45412;54.472;18.464;2023-11-19T11:24:28;99383.21;;;0.13;93.08
59588;BME280;45412;54.472;18.464;2023-11-19T11:30:51;99370.30;;;0.16;92.86
59588;BME280;45412;54.472;18.464;2023-11-19T11:40:04;99355.31;;;0.01;93.68
59588;BME280;45412;54.472;18.464;2023-11-19T11:42:58;99351.45;;;-0.03;93.68
59588;BME280;45412;54.472;18.464;2023-11-19T11:45:46;99341.91;;;-0.08;94.06
59588;BME280;45412;54.472;18.464;2023-11-19T11:48:36;99330.98;;;-0.09;94.50
59588;BME280;45412;54.472;18.464;2023-11-19T11:52:00;99324.05;;;-0.10;94.87
59588;BME280;45412;54.472;18.464;2023-11-19T11:54:49;99317.90;;;-0.13;95.92
59588;BME280;45412;54.472;18.464;2023-11-19T11:57:38;99317.19;;;-0.16;96.08
59588;BME280;45412;54.472;18.464;2023-11-19T12:03:21;99306.46;;;-0.14;96.39
59588;BME280;45412;54.472;18.464;2023-11-19T12:06:10;99304.09;;;-0.12;96.67
59588;BME280;45412;54.472;18.464;2023-11-19T12:09:01;99286.94;;;-0.11;97.02
59588;BME280;45412;54.472;18.464;2023-11-19T12:11:49;99285.13;;;-0.13;97.29
59588;BME280;45412;54.472;18.464;2023-11-19T12:17:49;99270.85;;;-0.13;97.91
59588;BME280;45412;54.472;18.464;2023-11-19T12:20:38;99268.52;;;-0.08;97.93
59588;BME280;45412;54.472;18.464;2023-11-19T12:23:32;99264.23;;;-0.06;97.92
59588;BME280;45412;54.472;18.464;2023-11-19T12:26:40;99258.04;;;-0.04;97.88
59588;BME280;45412;54.472;18.464;2023-11-19T12:29:41;99250.34;;;0.01;98.32
59588;BME280;45412;54.472;18.464;2023-11-19T12:32:45;99239.41;;;-0.02;98.41
59588;BME280;45412;54.472;18.464;2023-11-19T12:35:39;99231.80;;;-0.03;98.76
59588;BME280;45412;54.472;18.464;2023-11-19T12:38:29;99236.77;;;-0.04;99.28
59588;BME280;45412;54.472;18.464;2023-11-19T12:41:17;99231.24;;;-0.02;99.51
59588;BME280;45412;54.472;18.464;2023-11-19T12:44:11;99228.16;;;0.01;99.52
59588;BME280;45412;54.472;18.464;2023-11-19T12:47:04;99220.48;;;0.05;99.51
59588;BME280;45412;54.472;18.464;2023-11-19T12:49:56;99218.69;;;0.05;99.47
59588;BME280;45412;54.472;18.464;2023-11-19T12:52:57;99216.99;;;0.05;99.52
59588;BME280;45412;54.472;18.464;2023-11-19T12:55:45;99209.44;;;0.02;99.59
59588;BME280;45412;54.472;18.464;2023-11-19T12:58:35;99209.66;;;0.01;99.84
59588;BME280;45412;54.472;18.464;2023-11-19T13:01:26;99206.42;;;-0.04;99.94
59588;BME280;45412;54.472;18.464;2023-11-19T13:04:20;99199.68;;;-0.05;100.00
59588;BME280;45412;54.472;18.464;2023-11-19T13:07:08;99188.23;;;-0.07;100.00
59588;BME280;45412;54.472;18.464;2023-11-19T13:10:02;99183.58;;;-0.11;100.00
59588;BME280;45412;54.472;18.464;2023-11-19T13:13:20;99180.91;;;-0.22;100.00
59588;BME280;45412;54.472;18.464;2023-11-19T13:16:07;99178.23;;;-0.28;100.00
59588;BME280;45412;54.472;18.464;2023-11-19T13:18:57;99173.83;;;-0.23;100.00
59588;BME280;45412;54.472;18.464;2023-11-19T13:21:47;99172.40;;;-0.26;100.00
59588;BME280;45412;54.472;18.464;2023-11-19T13:24:36;99163.86;;;-0.26;100.00
59588;BME280;45412;54.472;18.464;2023-11-19T13:27:24;99160.89;;;-0.23;100.00
59588;BME280;45412;54.472;18.464;2023-11-19T13:30:13;99160.29;;;-0.21;100.00
59588;BME280;45412;54.472;18.464;2023-11-19T13:33:04;99161.42;;;-0.22;100.00
59588;BME280;45412;54.472;18.464;2023-11-19T13:35:52;99158.95;;;-0.26;100.00
59588;BME280;45412;54.472;18.464;2023-11-19T13:38:40;99160.63;;;-0.28;100.00
59588;BME280;45412;54.472;18.464;2023-11-19T13:41:34;99154.44;;;-0.26;100.00
59588;BME280;45412;54.472;18.464;2023-11-19T13:44:23;99150.46;;;-0.23;100.00
59588;BME280;45412;54.472;18.464;2023-11-19T13:47:13;99148.86;;;-0.22;100.00
59588;BME280;45412;54.472;18.464;2023-11-19T13:50:01;99150.14;;;-0.20;100.00
59588;BME280;45412;54.472;18.464;2023-11-19T13:52:49;99146.60;;;-0.19;100.00
59588;BME280;45412;54.472;18.464;2023-11-19T13:55:37;99146.17;;;-0.21;100.00
59588;BME280;45412;54.472;18.464;2023-11-19T13:58:24;99135.45;;;-0.26;100.00
59588;BME280;45412;54.472;18.464;2023-11-19T14:01:12;99138.41;;;-0.23;100.00
59588;BME280;45412;54.472;18.464;2023-11-19T14:04:00;99138.02;;;-0.25;100.00
59588;BME280;45412;54.472;18.464;2023-11-19T14:06:49;99138.15;;;-0.25;100.00
59588;BME280;45412;54.472;18.464;2023-11-19T14:09:36;99133.11;;;-0.21;100.00
59588;BME280;45412;54.472;18.464;2023-11-19T14:12:25;99130.73;;;-0.23;100.00
59588;BME280;45412;54.472;18.464;2023-11-19T14:15:13;99131.23;;;-0.19;100.00
59588;BME280;45412;54.472;18.464;2023-11-19T14:18:02;99127.80;;;-0.20;100.00
59588;BME280;45412;54.472;18.464;2023-11-19T14:20:50;99131.33;;;-0.20;100.00
59588;BME280;45412;54.472;18.464;2023-11-19T14:23:38;99129.54;;;-0.23;100.00
59588;BME280;45412;54.472;18.464;2023-11-19T14:26:25;99127.38;;;-0.22;100.00
59588;BME280;45412;54.472;18.464;2023-11-19T14:29:15;99124.73;;;-0.21;100.00
59588;BME280;45412;54.472;18.464;2023-11-19T14:32:04;99122.14;;;-0.18;100.00
59588;BME280;45412;54.472;18.464;2023-11-19T14:34:52;99118.16;;;-0.15;100.00
59588;BME280;45412;54.472;18.464;2023-11-19T14:37:40;99119.11;;;-0.17;100.00
59588;BME280;45412;54.472;18.464;2023-11-19T14:40:28;99122.98;;;-0.21;100.00
59588;BME280;45412;54.472;18.464;2023-11-19T14:43:18;99119.66;;;-0.24;100.00
59588;BME280;45412;54.472;18.464;2023-11-19T14:46:06;99121.75;;;-0.24;100.00
59588;BME280;45412;54.472;18.464;2023-11-19T14:48:55;99120.30;;;-0.27;100.00
59588;BME280;45412;54.472;18.464;2023-11-19T14:51:42;99117.63;;;-0.29;100.00
59588;BME280;45412;54.472;18.464;2023-11-19T14:54:31;99117.42;;;-0.32;100.00